Alev Kaman — TCCN5 — position and weather

sailwx.info

Track history (hours):
 
Tides and Currents Weather Stations Pressure Air Temp Water Temp Dewpoint Dewpoint Depression Visibility Wind Speed Wind Dir Waves Ship Positions

Alev Kaman

Last reported at 2017-Sep-21 12:13 UTC. Time now 2017-Sep-25 18:58 UTC.
Position N 41°21' E 036°24'.

Length 93 m; draft 6.1 m.

Type: Ship (hazmat cat B). MMSI: 271000716.

Date/timePositionNaut miles runAvg speedWind from/ knotsBaromVisibWave heightAir tempDewpointWater temp
2017-Sep-21 12:13N 41°21' E 036°24'4 9.4
2017-Sep-21 11:46N 41°25' E 036°22'3 9.3
2017-Sep-21 11:30N 41°27' E 036°20'5 9.1
2017-Sep-21 11:00N 41°31' E 036°18'5 9.0
2017-Sep-21 10:30N 41°35' E 036°15'4 8.9
2017-Sep-21 10:00N 41°39' E 036°13'4 8.8
2017-Sep-21 09:30N 41°43' E 036°10'4 8.7
2017-Sep-21 09:00N 41°47' E 036°07'4 8.5
2017-Sep-21 08:30N 41°50' E 036°03'5 9.3
2017-Sep-21 08:00N 41°51' E 035°57'5 9.5
2017-Sep-21 07:30N 41°53' E 035°51'5 9.6
2017-Sep-21 07:00N 41°55' E 035°45'8 9.6
2017-Sep-21 06:07N 41°58' E 035°35'1 9.4
2017-Sep-21 06:00N 41°59' E 035°33'5 9.3
2017-Sep-21 05:30N 42°00' E 035°28'13 8.8
2017-Sep-21 04:02N 42°05' E 035°11'1 8.0
2017-Sep-21 03:53N 42°06' E 035°10'37 8.7
2017-Sep-20 23:38N 42°02' E 034°20'3 9.2
2017-Sep-20 23:15N 42°03' E 034°16'5 9.0
2017-Sep-20 22:45N 42°04' E 034°10'2 8.9
2017-Sep-20 22:30N 42°04' E 034°07'4 8.7
2017-Sep-20 22:00N 42°05' E 034°01'4 8.9
2017-Sep-20 21:30N 42°05' E 033°55'4 8.9
2017-Sep-20 21:00N 42°05' E 033°49'4 8.7
2017-Sep-20 20:30N 42°04' E 033°44'4 8.6
2017-Sep-20 20:00N 42°03' E 033°38'4 8.4
2017-Sep-20 19:30N 42°04' E 033°32'4 8.1
2017-Sep-20 19:00N 42°04' E 033°27'4 8.2
2017-Sep-20 18:30N 42°04' E 033°21'4 8.5
2017-Sep-20 18:00N 42°03' E 033°16'5 8.7
2017-Sep-20 17:23N 42°01' E 033°09'3 8.7
2017-Sep-20 17:00N 41°60' E 033°05'4 8.5
2017-Sep-20 16:29N 41°58' E 032°59'4 8.2
2017-Sep-20 16:00N 41°57' E 032°54'4 8.4
2017-Sep-20 15:30N 41°55' E 032°49'4 8.3
2017-Sep-20 15:00N 41°54' E 032°44'8 8.2
2017-Sep-20 14:00N 41°52' E 032°33'4 8.3
2017-Sep-20 13:30N 41°50' E 032°28'4 8.5
2017-Sep-20 13:00N 41°48' E 032°23'4 8.9
2017-Sep-20 12:30N 41°45' E 032°18'6 8.8
2017-Sep-20 11:52N 41°42' E 032°12'3 8.9
2017-Sep-20 11:30N 41°40' E 032°08'8 9.0
2017-Sep-20 10:40N 41°36' E 031°60'107 8.9
2017-Sep-19 22:36N 41°16' E 029°39'5 9.2
2017-Sep-19 22:03N 41°16' E 029°32'0 9.3
2017-Sep-19 22:00N 41°16' E 029°32'7 9.0
2017-Sep-19 21:13N 41°16' E 029°22'2 8.8
2017-Sep-19 20:58N 41°16' E 029°19'5 8.5
2017-Sep-19 20:22N 41°16' E 029°13'3 8.9
2017-Sep-19 20:00N 41°14' E 029°09'19 7.8
2017-Sep-19 17:34N 40°56' E 028°60'2 7.2
2017-Sep-19 17:19N 40°55' E 028°60'4 8.3
2017-Sep-19 16:49N 40°50' E 029°01'3 9.2
2017-Sep-19 16:30N 40°48' E 029°00'3 6.4
2017-Sep-19 16:00N 40°44' E 028°60'1 0.1
2017-Sep-19 05:57N 40°44' E 029°01'0 0.6
2017-Sep-19 05:26N 40°44' E 029°01'0 0.6
2017-Sep-19 04:57N 40°44' E 029°01'1 0.5
2017-Sep-19 03:10N 40°44' E 029°03'0 0.5
2017-Sep-19 02:52N 40°44' E 029°03'0 0.5
2017-Sep-19 02:30N 40°44' E 029°03'1 0.6
2017-Sep-19 00:55N 40°45' E 029°04'  
2017-Sep-12 18:03N 40°46' E 029°33'1 3.0
2017-Sep-12 17:44N 40°45' E 029°34'  
Track history (hours):
 
Tides and Currents Weather Stations Pressure Air Temp Water Temp Dewpoint Dewpoint Depression Visibility Wind Speed Wind Dir Waves Ship Positions

Alev Kaman

Last reported at 2017-Sep-21 12:13 UTC. Time now 2017-Sep-25 18:58 UTC.
Position N 41°21' E 036°24'.

Length 93 m; draft 6.1 m.

Type: Ship (hazmat cat B). MMSI: 271000716.

Date/timePositionNaut miles runAvg speedWind from/ knotsBaromVisibWave heightAir tempDewpointWater temp
2017-Sep-21 12:13N 41°21' E 036°24'4 9.4
2017-Sep-21 11:46N 41°25' E 036°22'3 9.3
2017-Sep-21 11:30N 41°27' E 036°20'5 9.1
2017-Sep-21 11:00N 41°31' E 036°18'5 9.0
2017-Sep-21 10:30N 41°35' E 036°15'4 8.9
2017-Sep-21 10:00N 41°39' E 036°13'4 8.8
2017-Sep-21 09:30N 41°43' E 036°10'4 8.7
2017-Sep-21 09:00N 41°47' E 036°07'4 8.5
2017-Sep-21 08:30N 41°50' E 036°03'5 9.3
2017-Sep-21 08:00N 41°51' E 035°57'5 9.5
2017-Sep-21 07:30N 41°53' E 035°51'5 9.6
2017-Sep-21 07:00N 41°55' E 035°45'8 9.6
2017-Sep-21 06:07N 41°58' E 035°35'1 9.4
2017-Sep-21 06:00N 41°59' E 035°33'5 9.3
2017-Sep-21 05:30N 42°00' E 035°28'13 8.8
2017-Sep-21 04:02N 42°05' E 035°11'1 8.0
2017-Sep-21 03:53N 42°06' E 035°10'37 8.7
2017-Sep-20 23:38N 42°02' E 034°20'3 9.2
2017-Sep-20 23:15N 42°03' E 034°16'5 9.0
2017-Sep-20 22:45N 42°04' E 034°10'2 8.9
2017-Sep-20 22:30N 42°04' E 034°07'4 8.7
2017-Sep-20 22:00N 42°05' E 034°01'4 8.9
2017-Sep-20 21:30N 42°05' E 033°55'4 8.9
2017-Sep-20 21:00N 42°05' E 033°49'4 8.7
2017-Sep-20 20:30N 42°04' E 033°44'4 8.6
2017-Sep-20 20:00N 42°03' E 033°38'4 8.4
2017-Sep-20 19:30N 42°04' E 033°32'4 8.1
2017-Sep-20 19:00N 42°04' E 033°27'4 8.2
2017-Sep-20 18:30N 42°04' E 033°21'4 8.5
2017-Sep-20 18:00N 42°03' E 033°16'5 8.7
2017-Sep-20 17:23N 42°01' E 033°09'3 8.7
2017-Sep-20 17:00N 41°60' E 033°05'4 8.5
2017-Sep-20 16:29N 41°58' E 032°59'4 8.2
2017-Sep-20 16:00N 41°57' E 032°54'4 8.4
2017-Sep-20 15:30N 41°55' E 032°49'4 8.3
2017-Sep-20 15:00N 41°54' E 032°44'8 8.2
2017-Sep-20 14:00N 41°52' E 032°33'4 8.3
2017-Sep-20 13:30N 41°50' E 032°28'4 8.5
2017-Sep-20 13:00N 41°48' E 032°23'4 8.9
2017-Sep-20 12:30N 41°45' E 032°18'6 8.8
2017-Sep-20 11:52N 41°42' E 032°12'3 8.9
2017-Sep-20 11:30N 41°40' E 032°08'8 9.0
2017-Sep-20 10:40N 41°36' E 031°60'107 8.9
2017-Sep-19 22:36N 41°16' E 029°39'5 9.2
2017-Sep-19 22:03N 41°16' E 029°32'0 9.3
2017-Sep-19 22:00N 41°16' E 029°32'7 9.0
2017-Sep-19 21:13N 41°16' E 029°22'2 8.8
2017-Sep-19 20:58N 41°16' E 029°19'5 8.5
2017-Sep-19 20:22N 41°16' E 029°13'3 8.9
2017-Sep-19 20:00N 41°14' E 029°09'19 7.8
2017-Sep-19 17:34N 40°56' E 028°60'2 7.2
2017-Sep-19 17:19N 40°55' E 028°60'4 8.3
2017-Sep-19 16:49N 40°50' E 029°01'3 9.2
2017-Sep-19 16:30N 40°48' E 029°00'3 6.4
2017-Sep-19 16:00N 40°44' E 028°60'1 0.1
2017-Sep-19 05:57N 40°44' E 029°01'0 0.6
2017-Sep-19 05:26N 40°44' E 029°01'0 0.6
2017-Sep-19 04:57N 40°44' E 029°01'1 0.5
2017-Sep-19 03:10N 40°44' E 029°03'0 0.5
2017-Sep-19 02:52N 40°44' E 029°03'0 0.5
2017-Sep-19 02:30N 40°44' E 029°03'1 0.6
2017-Sep-19 00:55N 40°45' E 029°04'  
2017-Sep-12 18:03N 40°46' E 029°33'1 3.0
2017-Sep-12 17:44N 40°45' E 029°34'  

Dump ship's entire track history